Terminal Aerodrome Forecast
Issued by NWS

Home | Current Version | Previous Version | Graphics & Text | Print | Product List | Glossary On
Versions: 1 2 3 4 5 6 7 8 9 10 11 12 13 14 15 16 17
000
FTUS43 KTOP 182326
TAFMHK
TAF
KMHK 182326Z 1900/1924 21009KT P6SM BKN250
     FM190300 21006KT P6SM BKN250 WS010/23040KT
     FM191400 20007KT P6SM BKN250
     FM191700 21010G18KT P6SM BKN250=

USA.gov is the U.S. government's official web portal to all federal, state and local government web resources and services.